Aviation Digital Data Service (ADDS)

Output produced by METARs form (0112 UTC 30 August 2016)
found at http://aviationweather.gov/adds/metars/
 
KSYR 292330Z 3000/3024 VRB02KT P6SM SKC 
     FM301500 25004KT P6SM SCT120